x

Great Slave Lake, North Arm (45150) Wave Buoy

12:00pm - Tue 30th Sep 2014 All times are UTC.

  • Sig Wave height 2.6ft
  • Peak Period 4s
  • Wind
    20mph, 22mph gusts
  • Sea Temp 45°f
  • Air Temp 45°f
  • Sea Pressure 1000.3mb

More Historic Weather Station data

Upgrade to MSW Pro to gain access to the past 30 days of data for over 8000 Wavebouys and Weather Stations around the globe.

Join Pro

Comparision Forecast

View Surf forecast
   
Tue 09/30 12:00pm 2.5ft 4s 20 22 mph 1000.3mb 45f 45f
11:00am 2ft 13s 13 16 mph 999.7mb 45f 47f
10:00am  -   -  13
mph
- - -
9:00am 1ft 14s 16 18 mph 998.8mb 45f 47f
8:00am 1.3ft 13s 9
mph
998.2mb 45f 46f
6:00am 1ft 3s 9 11 mph 997.2mb 45f 47f
5:00am 1.3ft 13s 7
mph
996.9mb 45f 48f
4:00am 1.6ft 4s 7 9 mph 996.8mb 45f 47f
3:00am 2ft 4s 13 20 mph 997mb 45f 50f
2:00am 2.5ft 14s 16 18 mph 996.7mb 45f 47f
1:00am 2.5ft 4s 13 16 mph 997mb 45f 48f
12:00am 2.5ft 5s 16 18 mph 997.1mb 45f 48f
Mon 09/29 11:00pm 3ft 4s 11 13 mph 997.1mb 45f 48f
10:00pm 3.5ft 5s 18 22 mph 996.8mb 45f 48f
9:00pm 4ft 5s 20 27 mph 997.4mb 45f 47f
8:00pm 4ft 5s 22 27 mph 998.2mb 45f 47f
7:00pm 4.5ft 5s 27 31 mph 998.5mb 45f 47f
6:00pm 3.5ft 4s 25 31 mph 999.2mb 45f 46f
5:00pm 3.5ft 4s 25 29 mph 1000.2mb 45f 46f
4:00pm 3.5ft 4s 22 25 mph 1001.3mb 45f 46f
2:00pm 2.5ft 4s 18 22 mph 1002.6mb 45f 46f
1:00pm 2ft 3s 18 20 mph 1003.2mb 46f 45f
12:00pm 1.6ft 14s 16 20 mph 1003.7mb 46f 46f
11:00am 1.3ft 14s 13 16 mph 1004.4mb 46f 45f
10:00am 1ft 2s 11 13 mph 1004.6mb 46f 46f
9:00am 1ft 3s 9 11 mph 1004.9mb 46f 46f
8:00am 1ft 4s 9 11 mph 1005.1mb 46f 46f
7:00am 1.3ft 4s 4 7 mph 1005.8mb 46f 46f
6:00am 1.6ft 4s 4
mph
1006mb 46f 46f
5:00am 2ft 4s 9 11 mph 1006.4mb 46f 47f
4:00am 2ft 4s 7 9 mph 1006.7mb 46f 47f
3:00am 2ft 5s 9 11 mph 1006.9mb 46f 47f
2:00am 2.5ft 4s 7 9 mph 1007.7mb 46f 46f
1:00am 2.5ft 5s 7 9 mph 1008.2mb 46f 46f
12:00am 3ft 5s 9 11 mph 1008.5mb 46f 47f
Sun 09/28 11:00pm 3ft 5s 13 16 mph 1008.8mb 46f 47f
10:00pm 3.5ft 5s 16 18 mph 1009.3mb 46f 47f
8:00pm  -   -  18
mph
1011.2mb - 46f
7:00pm 5.5ft 6s 20 25 mph 1011.7mb 46f 45f
6:00pm 6ft 6s 22 27 mph 1012.6mb 46f 45f
5:00pm 6ft 6s 22
mph
1012.7mb 46f 45f
4:00pm 5.5ft 6s 22 29 mph 1013.4mb 46f 45f
3:00pm 5.5ft 6s 25 31 mph 1014mb 46f 46f
2:00pm  -   -  25
mph
- - -
5:00am 1.6ft 3s 16 18 mph 1021.3mb 46f 48f
4:00am 1.6ft 12s 13 16 mph 1022mb 46f 47f
3:00am 1.6ft 14s 16 20 mph 1022.8mb 46f 47f
2:00am 1.3ft 14s 13 16 mph 1023.6mb 46f 47f
1:00am 1ft 14s 11 13 mph 1024.4mb 46f 46f
12:00am 1.3ft 3s 9 11 mph 1024.9mb 46f 46f
Sat 09/27 11:00pm 1ft 14s 9 11 mph 1025.4mb 46f 46f
10:00pm  -   -  9
mph
- - 45f
9:00pm 0.7ft 3s 4 7 mph 1025.9mb 46f 46f
8:00pm 1ft 3s 4 7 mph 1026.2mb 46f 46f
7:00pm 0.7ft 13s 7 9 mph 1026.4mb 46f 46f
6:00pm 0.7ft 2s 7
mph
1026.3mb 46f 46f
5:00pm 0.3ft 2s 7 9 mph 1026.1mb 46f 45f
4:00pm 0.3ft 2s 7 9 mph 1026.2mb 46f 45f
3:00pm 0.3ft 2s 4 7 mph 1026mb 46f 45f
2:00pm 0.3ft 2s 7 9 mph 1025.7mb 46f 45f
1:00pm 0.3ft 2s 7 9 mph 1025.5mb 46f 45f
12:00pm 0.7ft 14s 4 7 mph 1025.6mb 46f 45f
11:00am 0.7ft 13s 4 7 mph 1025.2mb 46f 45f
10:00am 1ft 14s 7 9 mph 1025.1mb 46f 43f
9:00am 1ft 13s 7 9 mph 1024.8mb 46f 44f
8:00am 1.3ft 4s 7 9 mph 1024.5mb 46f 45f
7:00am 1.6ft 13s 9
mph
1024.4mb 46f 45f
6:00am 1.6ft 4s 11 13 mph 1024.3mb 46f 44f
5:00am 2ft 4s 11 13 mph 1024.4mb 46f 44f
4:00am 2ft 14s 13 16 mph 1024.2mb 46f 44f
3:00am 2ft 4s 13 18 mph 1024.2mb 46f 44f
2:00am 2ft 4s 13 16 mph 1024.1mb 46f 44f
1:00am 2ft 4s 11 13 mph 1023.8mb 46f 44f
12:00am 2ft 4s 11 13 mph 1023.4mb 46f 44f
Fri 09/26 11:00pm 1.6ft 3s 13 16 mph 1023.7mb 46f 45f
10:00pm 1.6ft 14s 13 18 mph 1023.7mb 46f 44f
9:00pm 1.6ft 14s 13 16 mph 1023.8mb 46f 44f
8:00pm 1.6ft 14s 13 16 mph 1024mb 46f 44f
7:00pm 1.6ft 14s 13 16 mph 1024.3mb 46f 44f
6:00pm 1.3ft 13s 13 16 mph 1024.4mb 46f 43f
5:00pm 1.3ft 14s 13 16 mph 1024.7mb 46f 42f
4:00pm 1.3ft 14s 11 13 mph 1025mb 46f 42f
3:00pm 1.3ft 13s 11 13 mph 1024.6mb 46f 42f
2:00pm 1.3ft 3s 11 13 mph 1024.6mb 46f 42f